Time;durP1;ratioP1;P1;durP2;ratioP2;P2;SDS_P1;SDS_P2;PMS_P1;PMS_P2;Temp;Humidity;BMP_temperature;BMP_pressure;BME280_temperature;BME280_humidity;BME280_pressure;Samples;Min_cycle;Max_cycle;Signal;HPM_P1;HPM_P2
2023/11/25 00:01:50;;;;;;;6.85;1.15;;;5.30;99.90;;;;;;5017145;28;20025;-75
2023/11/25 00:04:16;;;;;;;4.28;0.10;;;5.40;99.90;;;;;;5017408;28;20080;-76
2023/11/25 00:06:41;;;;;;;6.82;0.10;;;5.40;99.90;;;;;;5015719;28;20517;-76
2023/11/25 00:09:07;;;;;;;7.68;0.10;;;5.50;99.90;;;;;;5017071;28;20029;-76
2023/11/25 00:11:32;;;;;;;19.70;0.47;;;5.40;99.90;;;;;;5015569;28;20033;-76
2023/11/25 00:13:58;;;;;;;8.90;0.20;;;5.30;99.90;;;;;;5016305;28;20060;-76
2023/11/25 00:16:24;;;;;;;1.90;0.00;;;5.30;99.90;;;;;;5016720;28;20418;-76
2023/11/25 00:18:50;;;;;;;11.90;0.90;;;5.30;99.90;;;;;;5016503;28;20022;-76
2023/11/25 00:21:15;;;;;;;3.90;0.32;;;5.20;99.90;;;;;;5015169;28;20030;-76
2023/11/25 00:23:41;;;;;;;4.90;0.20;;;5.10;99.90;;;;;;5016569;28;20026;-76
2023/11/25 00:26:07;;;;;;;7.47;0.10;;;5.10;99.90;;;;;;5016442;28;20128;-76
2023/11/25 00:28:33;;;;;;;6.55;1.63;;;5.00;99.90;;;;;;5015800;28;20481;-76
2023/11/25 00:30:58;;;;;;;1.25;0.00;;;5.00;99.90;;;;;;5015958;28;20033;-76
2023/11/25 00:33:24;;;;;;;1.27;0.00;;;5.00;99.90;;;;;;5016014;28;20029;-76
2023/11/25 00:35:50;;;;;;;5.68;0.10;;;5.10;99.90;;;;;;5016178;28;20062;-75
2023/11/25 00:38:16;;;;;;;7.78;0.20;;;5.20;99.90;;;;;;5014797;28;20033;-76
2023/11/25 00:40:41;;;;;;;10.73;0.50;;;5.20;99.90;;;;;;5016224;28;20094;-76
2023/11/25 00:43:07;;;;;;;9.27;0.28;;;5.30;99.90;;;;;;5016372;28;20046;-76
2023/11/25 00:45:32;;;;;;;6.32;0.08;;;5.30;99.90;;;;;;5014657;28;20061;-75
2023/11/25 00:47:58;;;;;;;11.35;0.82;;;5.30;99.90;;;;;;5014402;28;20026;-76
2023/11/25 00:50:24;;;;;;;6.65;0.22;;;5.30;99.90;;;;;;5015929;28;20022;-76
2023/11/25 00:52:50;;;;;;;7.78;0.35;;;5.30;99.90;;;;;;5015880;28;20374;-76
2023/11/25 00:55:16;;;;;;;8.30;0.98;;;5.20;99.90;;;;;;5016062;28;20056;-74
2023/11/25 00:57:41;;;;;;;5.43;0.43;;;5.30;99.90;;;;;;5015790;28;20022;-75
2023/11/25 01:00:15;;;;;;;1.95;0.00;;;5.20;99.90;;;;;;5015664;28;20026;-75
2023/11/25 01:02:45;;;;;;;7.93;0.40;;;5.20;99.90;;;;;;5015645;28;20105;-75
2023/11/25 01:05:10;;;;;;;5.57;0.30;;;5.10;99.90;;;;;;5014395;28;20037;-75
2023/11/25 01:07:37;;;;;;;8.32;0.40;;;5.00;99.90;;;;;;5015653;28;20026;-75
2023/11/25 01:10:03;;;;;;;9.43;0.10;;;4.90;99.90;;;;;;5015803;28;20064;-75
2023/11/25 01:12:30;;;;;;;5.32;0.00;;;4.80;99.90;;;;;;5014431;28;20029;-75
2023/11/25 01:14:56;;;;;;;6.00;0.20;;;4.60;99.90;;;;;;5015572;28;20567;-75
2023/11/25 01:17:23;;;;;;;6.88;0.22;;;4.50;99.90;;;;;;5014245;28;20022;-75
2023/11/25 01:19:48;;;;;;;5.28;0.35;;;4.50;99.90;;;;;;5015004;28;20018;-75
2023/11/25 01:22:14;;;;;;;5.93;0.10;;;4.40;99.90;;;;;;5015268;28;20030;-75
2023/11/25 01:24:40;;;;;;;8.52;0.10;;;4.30;99.90;;;;;;5014897;28;20025;-74
2023/11/25 01:27:06;;;;;;;5.60;0.17;;;4.20;99.90;;;;;;5015382;28;20050;-75
2023/11/25 01:29:32;;;;;;;13.70;0.40;;;4.20;99.90;;;;;;5015078;28;20101;-75
2023/11/25 01:31:57;;;;;;;3.55;0.80;;;4.10;99.90;;;;;;5015159;28;20497;-74
2023/11/25 01:34:23;;;;;;;8.93;0.22;;;4.00;99.90;;;;;;5013664;28;20101;-75
2023/11/25 01:36:48;;;;;;;6.75;1.60;;;3.90;99.90;;;;;;5014431;28;20388;-76
2023/11/25 01:39:14;;;;;;;8.80;0.52;;;3.80;99.90;;;;;;5013666;28;20168;-75
2023/11/25 01:41:40;;;;;;;5.05;0.17;;;3.80;99.90;;;;;;5014979;28;20421;-76
2023/11/25 01:44:07;;;;;;;10.75;0.32;;;3.70;99.90;;;;;;5014812;28;20026;-75
2023/11/25 01:46:39;;;;;;;5.93;0.70;;;3.60;99.90;;;;;;5015323;28;20470;-75
2023/11/25 01:49:14;;;;;;;10.60;0.98;;;3.60;99.90;;;;;;5013411;28;20030;-76
2023/11/25 01:51:42;;;;;;;10.18;0.30;;;3.50;99.90;;;;;;5013640;28;20427;-75
2023/11/25 01:54:10;;;;;;;9.73;0.30;;;3.50;99.90;;;;;;5014617;28;20022;-75
2023/11/25 01:56:36;;;;;;;15.55;1.10;;;3.50;99.90;;;;;;5014270;28;20022;-76
2023/11/25 01:59:04;;;;;;;12.15;0.68;;;3.60;99.90;;;;;;5014505;28;20071;-76
2023/11/25 02:01:30;;;;;;;7.80;0.13;;;3.70;99.90;;;;;;5014729;28;20469;-75
2023/11/25 02:03:56;;;;;;;10.00;0.60;;;3.90;99.90;;;;;;5014436;28;20096;-75
2023/11/25 02:06:23;;;;;;;11.20;1.02;;;3.80;99.90;;;;;;5015214;28;20038;-74
2023/11/25 02:08:49;;;;;;;3.35;0.20;;;4.00;99.90;;;;;;5014528;28;20109;-74
2023/11/25 02:11:15;;;;;;;9.57;0.30;;;4.00;99.90;;;;;;5013191;28;20095;-74
2023/11/25 02:13:40;;;;;;;11.45;0.40;;;4.00;99.90;;;;;;5014419;28;20021;-74
2023/11/25 02:16:07;;;;;;;12.60;0.80;;;4.00;99.90;;;;;;5014271;28;20393;-74
2023/11/25 02:18:32;;;;;;;4.20;0.17;;;4.00;99.90;;;;;;5014752;28;20065;-74
2023/11/25 02:20:58;;;;;;;5.30;0.15;;;4.00;99.90;;;;;;5013121;28;20022;-74
2023/11/25 02:23:24;;;;;;;9.38;1.00;;;3.90;99.90;;;;;;5014107;28;20021;-74
2023/11/25 02:25:51;;;;;;;12.50;0.80;;;3.80;99.90;;;;;;5014113;28;20381;-74
2023/11/25 02:28:21;;;;;;;11.15;0.50;;;3.80;99.90;;;;;;5014217;28;20026;-75
2023/11/25 02:30:47;;;;;;;10.77;0.52;;;3.80;99.90;;;;;;5012659;28;20022;-74
2023/11/25 02:33:17;;;;;;;12.38;0.70;;;3.90;99.90;;;;;;5014189;28;20080;-74
2023/11/25 02:35:43;;;;;;;6.97;0.45;;;4.00;99.90;;;;;;5013094;28;20109;-74
2023/11/25 02:38:12;;;;;;;13.50;0.73;;;4.10;99.90;;;;;;5014061;28;20510;-74
2023/11/25 02:40:39;;;;;;;6.22;0.88;;;4.20;99.90;;;;;;5014449;28;20021;-74
2023/11/25 02:43:07;;;;;;;13.68;0.28;;;4.20;99.90;;;;;;5012615;28;20022;-74
2023/11/25 02:45:33;;;;;;;13.15;0.52;;;4.20;99.90;;;;;;5012495;28;20052;-74
2023/11/25 02:47:59;;;;;;;8.93;0.10;;;4.30;99.90;;;;;;5013671;28;20040;-74
2023/11/25 02:50:25;;;;;;;16.27;0.60;;;4.20;99.90;;;;;;5013695;28;20080;-74
2023/11/25 02:52:51;;;;;;;6.07;0.30;;;4.10;99.90;;;;;;5012475;28;20022;-74
2023/11/25 02:55:17;;;;;;;8.68;0.10;;;4.10;99.90;;;;;;5013786;28;20057;-74
2023/11/25 02:57:44;;;;;;;7.38;0.38;;;4.00;99.90;;;;;;5014001;28;20032;-74
2023/11/25 03:00:16;;;;;;;9.73;0.52;;;4.00;99.90;;;;;;5013732;28;20367;-74
2023/11/25 03:02:42;;;;;;;10.88;0.57;;;3.90;99.90;;;;;;5013795;28;20075;-74
2023/11/25 03:05:09;;;;;;;9.73;0.57;;;3.80;99.90;;;;;;5014344;28;20022;-74
2023/11/25 03:07:36;;;;;;;9.70;0.40;;;3.80;99.90;;;;;;5013863;28;20103;-74
2023/11/25 03:10:03;;;;;;;7.43;0.35;;;3.70;99.90;;;;;;5013212;28;20589;-74
2023/11/25 03:12:28;;;;;;;7.43;0.43;;;3.70;99.90;;;;;;5012484;28;20367;-74
2023/11/25 03:14:54;;;;;;;9.25;0.77;;;3.60;99.90;;;;;;5013965;28;20025;-74
2023/11/25 03:17:20;;;;;;;8.50;0.47;;;3.60;99.90;;;;;;5013589;28;20026;-74
2023/11/25 03:19:45;;;;;;;17.40;0.82;;;3.60;99.90;;;;;;5013408;28;20042;-74
2023/11/25 03:22:11;;;;;;;11.40;0.35;;;3.50;99.90;;;;;;5013663;28;20072;-74
2023/11/25 03:24:36;;;;;;;6.90;0.77;;;3.50;99.90;;;;;;5014500;28;20018;-74
2023/11/25 03:27:02;;;;;;;9.80;0.82;;;3.50;99.90;;;;;;5013510;28;20517;-74
2023/11/25 03:29:28;;;;;;;10.57;0.90;;;3.50;99.90;;;;;;5013461;28;20045;-74
2023/11/25 03:31:53;;;;;;;11.85;0.50;;;3.40;99.90;;;;;;5013682;28;20026;-75
2023/11/25 03:34:21;;;;;;;5.28;0.60;;;3.40;99.90;;;;;;5013301;28;20021;-74
2023/11/25 03:36:47;;;;;;;9.85;1.40;;;3.40;99.90;;;;;;5013384;28;20067;-74
2023/11/25 03:39:13;;;;;;;11.48;0.73;;;3.50;99.90;;;;;;5013535;28;20021;-74
2023/11/25 03:41:41;;;;;;;14.85;0.32;;;3.50;99.90;;;;;;5013441;28;20161;-74
2023/11/25 03:44:07;;;;;;;7.47;0.55;;;3.60;99.90;;;;;;5011703;28;20018;-74
2023/11/25 03:46:33;;;;;;;9.20;0.63;;;3.60;99.90;;;;;;5013731;28;20133;-74
2023/11/25 03:48:58;;;;;;;12.05;1.08;;;3.70;99.90;;;;;;5017082;28;20026;-74
2023/11/25 03:51:24;;;;;;;19.05;0.85;;;4.00;99.90;;;;;;5017130;28;20022;-74
2023/11/25 03:53:50;;;;;;;9.00;0.90;;;4.00;99.90;;;;;;5017105;28;20033;-74
2023/11/25 03:56:16;;;;;;;11.95;0.38;;;4.20;99.90;;;;;;5016700;28;20091;-74
2023/11/25 03:58:42;;;;;;;17.23;1.63;;;4.30;99.90;;;;;;5016795;28;20030;-74
2023/11/25 04:01:07;;;;;;;13.13;0.20;;;4.40;99.90;;;;;;5016859;28;20068;-74
2023/11/25 04:03:35;;;;;;;10.82;0.10;;;4.50;99.90;;;;;;5015529;28;20489;-74
2023/11/25 04:06:03;;;;;;;7.18;0.30;;;4.60;99.90;;;;;;5015425;28;20116;-74
2023/11/25 04:08:32;;;;;;;13.00;0.83;;;4.90;99.90;;;;;;5015222;28;20148;-74
2023/11/25 04:10:58;;;;;;;12.68;0.28;;;4.80;99.90;;;;;;5015205;28;20018;-74
2023/11/25 04:13:24;;;;;;;11.73;0.47;;;4.90;99.90;;;;;;5016457;28;20026;-74
2023/11/25 04:15:50;;;;;;;5.03;0.05;;;5.00;99.90;;;;;;5016410;28;20033;-74
2023/11/25 04:18:15;;;;;;;4.47;0.00;;;5.20;99.90;;;;;;5016100;28;20022;-75
2023/11/25 04:20:41;;;;;;;3.25;0.00;;;5.20;99.90;;;;;;5015883;28;20068;-74
2023/11/25 04:23:07;;;;;;;6.97;0.10;;;5.20;99.90;;;;;;5015144;28;20022;-74
2023/11/25 04:25:33;;;;;;;4.13;0.17;;;5.30;99.90;;;;;;5016278;28;20109;-74
2023/11/25 04:27:58;;;;;;;1.45;0.00;;;5.30;99.90;;;;;;5016186;28;20026;-74
2023/11/25 04:30:24;;;;;;;3.03;0.00;;;5.20;99.90;;;;;;5014857;28;20030;-74
2023/11/25 04:32:50;;;;;;;1.98;0.00;;;5.20;99.90;;;;;;5016351;28;20028;-74
2023/11/25 04:35:16;;;;;;;0.73;0.00;;;5.10;99.90;;;;;;5014883;28;20120;-74
2023/11/25 04:37:45;;;;;;;1.30;0.15;;;5.00;99.90;;;;;;5015824;28;20529;-75
2023/11/25 04:40:11;;;;;;;2.20;0.00;;;4.90;99.90;;;;;;5015932;28;20026;-74
2023/11/25 04:42:41;;;;;;;3.13;0.00;;;4.80;99.90;;;;;;5016599;28;20528;-74
2023/11/25 04:45:16;;;;;;;4.53;0.05;;;4.80;99.90;;;;;;5015765;28;20389;-74
2023/11/25 04:47:51;;;;;;;3.30;0.00;;;4.80;99.90;;;;;;5015971;28;20030;-74
2023/11/25 04:50:18;;;;;;;0.03;0.00;;;4.80;99.90;;;;;;5014382;28;20076;-74
2023/11/25 04:52:44;;;;;;;2.83;0.00;;;5.00;99.90;;;;;;5015743;28;20029;-74
2023/11/25 04:55:13;;;;;;;3.63;0.22;;;5.10;99.90;;;;;;5014544;28;20064;-74
2023/11/25 04:57:39;;;;;;;7.03;0.20;;;5.10;99.90;;;;;;5015524;28;20029;-74
2023/11/25 05:00:10;;;;;;;2.83;0.10;;;4.90;99.90;;;;;;5013096;28;20022;-74
2023/11/25 05:02:40;;;;;;;0.52;0.00;;;4.90;99.90;;;;;;5015279;28;20026;-74
2023/11/25 05:05:06;;;;;;;1.73;0.00;;;4.80;99.90;;;;;;5015596;28;20393;-74
2023/11/25 05:07:33;;;;;;;0.38;0.00;;;4.80;99.90;;;;;;5014115;28;20142;-74
2023/11/25 05:09:58;;;;;;;1.65;0.00;;;4.70;99.90;;;;;;5013940;28;20029;-74
2023/11/25 05:12:24;;;;;;;0.63;0.00;;;4.70;99.90;;;;;;5015474;28;20034;-74
2023/11/25 05:14:50;;;;;;;1.52;0.00;;;4.50;99.90;;;;;;5015330;28;20044;-74
2023/11/25 05:17:16;;;;;;;2.63;0.32;;;4.50;99.90;;;;;;5015221;28;20030;-74
2023/11/25 05:19:41;;;;;;;0.90;0.00;;;4.50;99.90;;;;;;5013813;28;20037;-74
2023/11/25 05:22:07;;;;;;;0.98;0.00;;;4.50;99.90;;;;;;5013745;28;20037;-74
2023/11/25 05:24:33;;;;;;;0.40;0.00;;;4.30;99.90;;;;;;5015586;28;20108;-74
2023/11/25 05:26:58;;;;;;;5.47;0.00;;;4.30;99.90;;;;;;5014897;28;20058;-74
2023/11/25 05:29:24;;;;;;;1.38;0.00;;;4.20;99.90;;;;;;5013431;28;20076;-74
2023/11/25 05:31:49;;;;;;;3.65;0.00;;;4.00;99.90;;;;;;5013622;28;20427;-74
2023/11/25 05:34:15;;;;;;;0.75;0.00;;;4.00;99.90;;;;;;5013711;28;20014;-74
2023/11/25 05:36:40;;;;;;;0.85;0.00;;;3.90;99.90;;;;;;5014442;28;20076;-74
2023/11/25 05:39:11;;;;;;;3.10;0.80;;;3.90;99.90;;;;;;5013502;28;20030;-74
2023/11/25 05:41:37;;;;;;;1.15;0.00;;;4.00;99.90;;;;;;5015766;28;20084;-74
2023/11/25 05:44:07;;;;;;;3.55;0.15;;;4.00;99.90;;;;;;5014133;28;20022;-74
2023/11/25 05:46:33;;;;;;;2.90;0.10;;;4.10;99.90;;;;;;5015317;28;20055;-74
2023/11/25 05:48:59;;;;;;;1.77;0.00;;;4.20;99.90;;;;;;5015056;28;20501;-74
2023/11/25 05:51:32;;;;;;;1.65;0.00;;;4.10;99.90;;;;;;5014943;28;20022;-74
2023/11/25 05:53:58;;;;;;;3.30;0.22;;;4.00;99.90;;;;;;5015075;28;20025;-74
2023/11/25 05:56:26;;;;;;;1.88;0.00;;;4.00;99.90;;;;;;5013195;28;20425;-74
2023/11/25 05:58:52;;;;;;;0.52;0.00;;;4.00;99.90;;;;;;5014914;28;20013;-74
2023/11/25 06:01:19;;;;;;;2.75;0.20;;;3.80;99.90;;;;;;5014332;28;20029;-74
2023/11/25 06:03:46;;;;;;;2.78;0.00;;;3.80;99.90;;;;;;5014439;28;20054;-74
2023/11/25 06:06:14;;;;;;;2.00;0.10;;;3.80;99.90;;;;;;5014373;28;20537;-74
2023/11/25 06:08:40;;;;;;;0.90;0.00;;;3.80;99.90;;;;;;5014257;28;20119;-74
2023/11/25 06:11:05;;;;;;;3.47;0.08;;;3.80;99.90;;;;;;5014160;28;20046;-74
2023/11/25 06:13:31;;;;;;;1.40;0.17;;;3.80;99.90;;;;;;5013017;28;20018;-74
2023/11/25 06:15:57;;;;;;;1.15;0.00;;;3.80;99.90;;;;;;5013848;28;20076;-74
2023/11/25 06:18:24;;;;;;;0.55;0.00;;;3.70;99.90;;;;;;5012890;28;20028;-74
2023/11/25 06:20:50;;;;;;;3.58;0.15;;;3.60;99.90;;;;;;5014281;28;20102;-74
2023/11/25 06:23:16;;;;;;;7.15;0.10;;;3.60;99.90;;;;;;5014342;28;20545;-74
2023/11/25 06:25:42;;;;;;;3.05;0.00;;;3.50;99.90;;;;;;5012846;28;20061;-74
2023/11/25 06:28:12;;;;;;;1.08;0.05;;;3.50;99.90;;;;;;5014250;28;20014;-74
2023/11/25 06:30:39;;;;;;;3.58;0.00;;;3.60;99.90;;;;;;5012939;28;20033;-74
2023/11/25 06:33:05;;;;;;;4.13;0.00;;;3.60;99.90;;;;;;5014612;28;20026;-74
2023/11/25 06:35:33;;;;;;;9.95;0.08;;;3.60;99.90;;;;;;5012955;28;20022;-74
2023/11/25 06:37:59;;;;;;;6.00;0.00;;;3.50;99.90;;;;;;5012408;28;20054;-74
2023/11/25 06:40:24;;;;;;;2.65;0.00;;;3.50;99.90;;;;;;5012943;28;20383;-74
2023/11/25 06:42:50;;;;;;;3.85;0.52;;;3.50;99.90;;;;;;5013864;28;20478;-74
2023/11/25 06:45:15;;;;;;;4.07;0.00;;;3.50;99.90;;;;;;5013892;28;20342;-74
2023/11/25 06:47:41;;;;;;;3.25;0.00;;;3.50;99.90;;;;;;5013975;28;20033;-74
2023/11/25 06:50:09;;;;;;;1.10;0.00;;;3.50;99.90;;;;;;5013865;28;20026;-74
2023/11/25 06:52:34;;;;;;;3.38;0.20;;;3.40;99.90;;;;;;5012289;28;20103;-74
2023/11/25 06:55:00;;;;;;;2.95;0.00;;;3.40;99.90;;;;;;5013754;28;20502;-74
2023/11/25 06:57:26;;;;;;;1.60;0.00;;;3.40;99.90;;;;;;5014080;28;20080;-74
2023/11/25 06:59:51;;;;;;;4.38;0.10;;;3.50;99.90;;;;;;5013948;28;20029;-74
2023/11/25 07:02:18;;;;;;;3.58;0.00;;;3.50;99.90;;;;;;5013911;28;20044;-74
2023/11/25 07:04:44;;;;;;;11.25;0.60;;;3.50;99.90;;;;;;5013970;28;20424;-74
2023/11/25 07:07:13;;;;;;;2.03;0.00;;;;;;;;;;5013678;28;20084;-74
2023/11/25 07:09:39;;;;;;;3.53;0.00;;;3.70;99.90;;;;;;5012264;28;20022;-74
2023/11/25 07:12:05;;;;;;;3.78;0.25;;;3.70;99.90;;;;;;5013548;28;20076;-74
2023/11/25 07:14:30;;;;;;;1.42;0.10;;;3.90;99.90;;;;;;5013689;28;20100;-74
2023/11/25 07:16:56;;;;;;;5.38;0.00;;;4.00;99.90;;;;;;5012357;28;20050;-74
2023/11/25 07:19:22;;;;;;;3.53;0.05;;;4.00;99.90;;;;;;5013583;28;20033;-74
2023/11/25 07:21:50;;;;;;;0.52;0.00;;;4.10;99.90;;;;;;5014004;28;20018;-74
2023/11/25 07:24:15;;;;;;;1.55;0.00;;;4.10;99.90;;;;;;5015993;28;20022;-74
2023/11/25 07:26:45;;;;;;;5.05;0.00;;;4.10;99.90;;;;;;5017050;28;20371;-74
2023/11/25 07:29:10;;;;;;;2.00;0.10;;;4.10;99.90;;;;;;5015829;28;20021;-74
2023/11/25 07:31:36;;;;;;;3.35;0.25;;;4.10;99.90;;;;;;5016039;28;20033;-74
2023/11/25 07:34:03;;;;;;;2.20;0.00;;;4.10;99.90;;;;;;5017437;28;20022;-74
2023/11/25 07:36:29;;;;;;;4.18;0.38;;;4.10;99.90;;;;;;5017648;28;20022;-74
2023/11/25 07:38:58;;;;;;;1.48;0.00;;;4.10;99.90;;;;;;5017481;28;20084;-74
2023/11/25 07:41:24;;;;;;;0.52;0.00;;;4.20;99.90;;;;;;5017390;28;20029;-74
2023/11/25 07:43:51;;;;;;;2.17;0.13;;;4.30;99.90;;;;;;5017743;28;20460;-74
2023/11/25 07:46:17;;;;;;;2.97;0.00;;;4.50;99.90;;;;;;5017950;28;20109;-74
2023/11/25 07:48:44;;;;;;;2.03;0.00;;;4.60;99.90;;;;;;5017029;28;20022;-75
2023/11/25 07:51:09;;;;;;;2.72;0.10;;;4.60;99.90;;;;;;5016222;28;20026;-75
2023/11/25 07:53:36;;;;;;;2.80;0.00;;;4.60;99.90;;;;;;5016016;28;20026;-75
2023/11/25 07:56:01;;;;;;;7.05;0.00;;;4.70;99.90;;;;;;5015725;28;20026;-75
2023/11/25 07:58:27;;;;;;;2.17;0.00;;;4.80;99.90;;;;;;5015634;28;20049;-75
2023/11/25 08:00:52;;;;;;;5.32;0.00;;;4.70;99.90;;;;;;5016923;28;20024;-75
2023/11/25 08:03:18;;;;;;;0.95;0.00;;;4.80;99.90;;;;;;5017158;28;20473;-75
2023/11/25 08:05:44;;;;;;;3.60;0.00;;;4.80;99.90;;;;;;5016714;28;20112;-75
2023/11/25 08:08:11;;;;;;;1.67;0.00;;;4.90;99.90;;;;;;5016949;28;20030;-74
2023/11/25 08:10:36;;;;;;;7.43;0.32;;;4.80;99.90;;;;;;5016572;28;20096;-74
2023/11/25 08:13:02;;;;;;;1.45;0.00;;;4.70;99.90;;;;;;5016736;28;20065;-74
2023/11/25 08:15:28;;;;;;;5.30;0.00;;;4.70;99.90;;;;;;5016587;28;20104;-74
2023/11/25 08:17:58;;;;;;;2.88;0.00;;;4.60;99.90;;;;;;5015433;28;20030;-74
2023/11/25 08:20:24;;;;;;;1.55;0.22;;;4.50;99.90;;;;;;5016612;28;20022;-74
2023/11/25 08:22:50;;;;;;;3.47;0.00;;;4.40;99.90;;;;;;5016653;28;20080;-74
2023/11/25 08:25:15;;;;;;;1.58;0.00;;;4.30;99.90;;;;;;5016693;28;20030;-75
2023/11/25 08:27:42;;;;;;;3.22;0.40;;;4.30;99.90;;;;;;5015259;28;20064;-74
2023/11/25 08:30:08;;;;;;;5.00;0.20;;;;;;;;;;5016366;28;20466;-75
2023/11/25 08:32:35;;;;;;;4.07;0.25;;;4.30;99.90;;;;;;5015095;28;20026;-75
2023/11/25 08:35:00;;;;;;;2.95;0.25;;;4.50;99.90;;;;;;5014824;28;20057;-74
2023/11/25 08:37:27;;;;;;;3.03;0.00;;;4.60;99.90;;;;;;5016139;28;20030;-74
2023/11/25 08:39:54;;;;;;;4.20;0.20;;;5.00;99.90;;;;;;5014784;28;20057;-74
2023/11/25 08:42:24;;;;;;;8.48;0.45;;;5.00;99.90;;;;;;5015252;28;20101;-74
2023/11/25 08:44:50;;;;;;;7.20;0.00;;;5.20;99.90;;;;;;5016096;28;20025;-74
2023/11/25 08:47:16;;;;;;;1.98;0.30;;;5.20;99.90;;;;;;5014723;28;20030;-74
2023/11/25 08:49:41;;;;;;;3.97;0.03;;;5.40;99.90;;;;;;5015012;28;20033;-74
2023/11/25 08:52:08;;;;;;;2.15;0.08;;;5.60;99.90;;;;;;5014715;28;20475;-74
2023/11/25 08:54:36;;;;;;;5.28;0.32;;;5.60;99.90;;;;;;5014914;28;20113;-74
2023/11/25 08:57:08;;;;;;;7.43;0.22;;;5.80;99.90;;;;;;5015949;28;20149;-74
2023/11/25 08:59:34;;;;;;;3.35;0.08;;;7.00;99.90;;;;;;5016004;28;20022;-74
2023/11/25 09:02:03;;;;;;;3.25;0.30;;;5.80;99.90;;;;;;5015999;28;20018;-74
2023/11/25 09:04:35;;;;;;;4.53;0.00;;;5.80;99.90;;;;;;5016217;28;20113;-74
2023/11/25 09:07:01;;;;;;;8.93;0.22;;;5.80;99.90;;;;;;5015676;28;20018;-74
2023/11/25 09:09:27;;;;;;;6.55;0.00;;;5.80;99.90;;;;;;5014320;28;20083;-74
2023/11/25 09:11:55;;;;;;;2.78;0.30;;;5.80;99.90;;;;;;5015692;28;20038;-74
2023/11/25 09:14:21;;;;;;;3.28;0.15;;;5.70;99.90;;;;;;5016443;28;20028;-74
2023/11/25 09:16:47;;;;;;;3.72;0.20;;;5.80;99.90;;;;;;5015438;28;20022;-73
2023/11/25 09:19:13;;;;;;;2.75;0.00;;;5.90;99.90;;;;;;5015160;28;20512;-74
2023/11/25 09:21:39;;;;;;;4.13;0.00;;;6.00;99.90;;;;;;5014477;28;20026;-74
2023/11/25 09:24:05;;;;;;;3.83;0.05;;;6.10;99.90;;;;;;5015381;28;20402;-74
2023/11/25 09:26:34;;;;;;;2.53;0.00;;;6.20;99.90;;;;;;5015628;28;20076;-74
2023/11/25 09:28:59;;;;;;;0.90;0.05;;;6.30;99.90;;;;;;5016088;28;20040;-74
2023/11/25 09:31:25;;;;;;;9.90;0.15;;;6.30;99.90;;;;;;5014089;28;20030;-74
2023/11/25 09:33:51;;;;;;;6.30;0.35;;;6.30;99.90;;;;;;5013963;28;20026;-76
2023/11/25 09:36:17;;;;;;;5.28;0.32;;;6.40;99.90;;;;;;5015070;28;20064;-74
2023/11/25 09:38:43;;;;;;;3.10;0.00;;;6.20;99.90;;;;;;5013753;28;20022;-74
2023/11/25 09:41:09;;;;;;;5.57;0.03;;;6.40;99.90;;;;;;5015856;28;20022;-74
2023/11/25 09:43:38;;;;;;;6.25;0.15;;;6.40;99.90;;;;;;5013928;28;20045;-75
2023/11/25 09:46:05;;;;;;;9.35;0.32;;;6.50;99.90;;;;;;5014870;28;20100;-74
2023/11/25 09:48:33;;;;;;;2.15;0.22;;;6.60;99.90;;;;;;5013869;28;20018;-75
2023/11/25 09:50:59;;;;;;;1.45;0.10;;;6.60;99.90;;;;;;5015028;28;20076;-74
2023/11/25 09:53:29;;;;;;;5.93;0.65;;;6.80;99.90;;;;;;5014956;28;20108;-74
2023/11/25 09:56:05;;;;;;;5.25;0.20;;;6.90;99.90;;;;;;5014479;28;20033;-75
2023/11/25 09:58:35;;;;;;;5.47;0.00;;;7.10;99.90;;;;;;5014550;28;20025;-75
2023/11/25 10:01:05;;;;;;;4.78;0.10;;;7.10;99.90;;;;;;5013729;28;20112;-74
2023/11/25 10:03:34;;;;;;;6.55;0.40;;;7.10;99.90;;;;;;5014352;28;20346;-74
2023/11/25 10:06:00;;;;;;;5.68;0.45;;;7.20;99.90;;;;;;5013351;28;20407;-74
2023/11/25 10:08:26;;;;;;;7.97;1.17;;;7.40;99.90;;;;;;5014679;28;20033;-74
2023/11/25 10:11:07;;;;;;;7.50;0.10;;;7.40;99.90;;;;;;5014986;28;20022;-74
2023/11/25 10:13:33;;;;;;;4.25;0.30;;;7.60;99.90;;;;;;5014692;28;20109;-76
2023/11/25 10:16:00;;;;;;;5.45;0.63;;;7.80;99.90;;;;;;5013260;28;20489;-73
2023/11/25 10:18:25;;;;;;;4.85;0.30;;;8.00;99.90;;;;;;5013324;28;20022;-74
2023/11/25 10:20:57;;;;;;;7.20;0.35;;;8.00;99.90;;;;;;5014221;28;20037;-74
2023/11/25 10:23:23;;;;;;;5.90;0.20;;;8.00;99.90;;;;;;5013598;28;20036;-74
2023/11/25 10:25:53;;;;;;;7.45;0.10;;;8.10;99.90;;;;;;5014422;28;20024;-74
2023/11/25 10:28:25;;;;;;;4.10;0.20;;;7.90;99.90;;;;;;5012993;28;20552;-74
2023/11/25 10:30:59;;;;;;;6.15;0.35;;;7.80;99.90;;;;;;5014164;28;20028;-74
2023/11/25 10:33:27;;;;;;;4.38;0.82;;;7.80;99.90;;;;;;5013193;28;20030;-74
2023/11/25 10:35:54;;;;;;;3.97;0.38;;;7.70;99.90;;;;;;5014189;28;20112;-73
2023/11/25 10:38:27;;;;;;;3.15;0.00;;;;;;;;;;5013003;28;20022;-75
2023/11/25 10:41:00;;;;;;;4.10;0.20;;;7.60;99.90;;;;;;5015099;28;20057;-75
2023/11/25 10:43:27;;;;;;;4.85;0.52;;;7.60;99.90;;;;;;5013590;28;20026;-73
2023/11/25 10:46:02;;;;;;;2.00;0.00;;;7.70;99.90;;;;;;5014141;28;20437;-73
2023/11/25 10:48:29;;;;;;;3.63;0.10;;;8.00;99.90;;;;;;5014548;28;20022;-73
2023/11/25 10:50:58;;;;;;;6.18;0.22;;;8.30;99.90;;;;;;5014208;28;20022;-75
2023/11/25 10:53:31;;;;;;;1.27;0.00;;;8.30;99.90;;;;;;5014536;28;20381;-73
2023/11/25 10:55:58;;;;;;;3.05;0.00;;;8.50;99.90;;;;;;5014234;28;20026;-74
2023/11/25 10:58:26;;;;;;;2.80;0.05;;;8.30;99.90;;;;;;5016876;28;20018;-73
2023/11/25 11:00:53;;;;;;;8.27;0.93;;;8.00;99.90;;;;;;5018779;28;20044;-73
2023/11/25 11:03:34;;;;;;;1.27;0.00;;;8.00;99.90;;;;;;5017230;28;20029;-73
2023/11/25 11:06:04;;;;;;;7.07;0.17;;;7.80;99.90;;;;;;5018549;28;20041;-73
2023/11/25 11:08:37;;;;;;;5.20;0.00;;;7.70;99.90;;;;;;5017785;28;20026;-74
2023/11/25 11:11:05;;;;;;;6.53;1.13;;;7.60;99.90;;;;;;5018109;28;20026;-73
2023/11/25 11:13:41;;;;;;;6.15;0.43;;;7.60;99.90;;;;;;5017952;28;20030;-73
2023/11/25 11:16:16;;;;;;;4.70;0.13;;;7.50;99.90;;;;;;5017945;28;20394;-74
2023/11/25 11:18:44;;;;;;;9.63;0.30;;;7.40;99.90;;;;;;5018075;28;20156;-74
2023/11/25 11:21:13;;;;;;;4.70;0.00;;;7.20;99.90;;;;;;5016842;28;20117;-73
2023/11/25 11:23:39;;;;;;;9.68;1.27;;;9.90;99.90;;;;;;5016859;28;20406;-74
2023/11/25 11:26:20;;;;;;;8.63;0.57;;;7.20;99.90;;;;;;5017708;28;20034;-74
2023/11/25 11:28:48;;;;;;;6.90;0.30;;;7.20;99.90;;;;;;5017597;28;20104;-74
2023/11/25 11:31:44;;;;;;;4.47;0.10;;;7.30;99.90;;;;;;5016497;28;20073;-74
2023/11/25 11:34:10;;;;;;;7.55;1.25;;;7.60;99.90;;;;;;5017609;28;20030;-74
2023/11/25 11:36:36;;;;;;;4.53;0.30;;;7.80;99.90;;;;;;5017679;28;20105;-74
2023/11/25 11:39:02;;;;;;;10.20;1.50;;;7.80;99.90;;;;;;5017399;28;20080;-74
2023/11/25 11:41:29;;;;;;;11.10;0.70;;;7.90;99.90;;;;;;5016182;28;20057;-74
2023/11/25 11:44:05;;;;;;;5.03;0.63;;;8.10;99.90;;;;;;5017896;28;20046;-74
2023/11/25 11:46:44;;;;;;;1.90;0.20;;;8.10;99.90;;;;;;5016191;28;20448;-74
2023/11/25 11:49:12;;;;;;;1.27;0.40;;;8.20;99.90;;;;;;5017302;28;20084;-74
2023/11/25 11:51:57;;;;;;;5.38;0.25;;;8.20;99.90;;;;;;5018232;28;20022;-74
2023/11/25 11:54:24;;;;;;;3.30;0.03;;;8.30;99.90;;;;;;5017444;28;20069;-74
2023/11/25 11:57:13;;;;;;;4.50;0.90;;;8.50;99.90;;;;;;5015914;28;20049;-74
2023/11/25 12:00:11;;;;;;;3.30;0.00;;;8.50;99.90;;;;;;5017375;28;20536;-74
2023/11/25 12:02:40;;;;;;;7.63;0.47;;;8.40;99.90;;;;;;5017175;28;20096;-74
2023/11/25 12:05:06;;;;;;;4.20;0.10;;;8.40;99.90;;;;;;5017088;28;20026;-74
2023/11/25 12:07:32;;;;;;;3.53;0.03;;;8.40;99.90;;;;;;5017472;28;20080;-74
2023/11/25 12:09:58;;;;;;;2.88;0.00;;;8.50;99.90;;;;;;5015023;28;20018;-74
2023/11/25 12:12:26;;;;;;;6.70;0.30;;;8.60;99.90;;;;;;5016374;28;20080;-73
2023/11/25 12:14:52;;;;;;;3.88;0.00;;;8.50;99.90;;;;;;5016370;28;20030;-73
2023/11/25 12:17:18;;;;;;;3.95;0.30;;;8.40;99.90;;;;;;5015369;28;20072;-73
2023/11/25 12:19:43;;;;;;;8.18;0.10;;;8.60;99.90;;;;;;5015865;28;20389;-73
2023/11/25 12:22:11;;;;;;;4.07;0.75;;;8.70;99.90;;;;;;5017126;28;20018;-73
2023/11/25 12:24:37;;;;;;;2.95;0.45;;;8.80;99.90;;;;;;5016560;28;20021;-74
2023/11/25 12:27:05;;;;;;;3.97;0.32;;;9.10;99.90;;;;;;5016566;28;20030;-74
2023/11/25 12:29:34;;;;;;;3.40;0.00;;;9.20;99.90;;;;;;5016501;28;20033;-74
2023/11/25 12:32:00;;;;;;;6.28;0.30;;;9.20;99.90;;;;;;5015104;28;20165;-74
2023/11/25 12:34:26;;;;;;;4.07;0.10;;;9.00;99.90;;;;;;5016599;28;20033;-74
2023/11/25 12:36:52;;;;;;;1.27;0.00;;;8.90;99.90;;;;;;5014828;28;20026;-74
2023/11/25 12:39:17;;;;;;;7.32;0.10;;;8.80;99.90;;;;;;5014829;28;20121;-74
2023/11/25 12:41:49;;;;;;;5.85;0.00;;;8.70;99.90;;;;;;5016193;28;20478;-74
2023/11/25 12:44:16;;;;;;;5.85;0.15;;;8.60;99.90;;;;;;5016099;28;20018;-74
2023/11/25 12:46:43;;;;;;;3.75;0.00;;;8.40;99.90;;;;;;5014884;28;20040;-74
2023/11/25 12:49:22;;;;;;;1.55;0.00;;;8.20;99.90;;;;;;5014707;28;20036;-74
2023/11/25 12:51:50;;;;;;;1.75;0.15;;;8.00;99.90;;;;;;5016224;28;20037;-74
2023/11/25 12:54:16;;;;;;;3.67;0.00;;;8.00;99.90;;;;;;5015896;28;20022;-74
2023/11/25 12:57:02;;;;;;;3.05;0.00;;;7.90;99.90;;;;;;5014364;28;20029;-74
2023/11/25 12:59:29;;;;;;;3.90;0.28;;;7.90;99.90;;;;;;5014072;28;20026;-74